Time;durP1;ratioP1;P1;durP2;ratioP2;P2;SDS_P1;SDS_P2;PMS_P1;PMS_P2;Temp;Humidity;BMP_temperature;BMP_pressure;BME280_temperature;BME280_humidity;BME280_pressure;Samples;Min_cycle;Max_cycle;Signal;HPM_P1;HPM_P2
2024/01/27 00:00:43;;;;;;;5.90;5.80;;;2.40;99.90;;;;;;5054730;28;20459;-70
2024/01/27 00:03:10;;;;;;;5.50;5.40;;;2.40;99.90;;;;;;5048743;28;20514;-71
2024/01/27 00:05:37;;;;;;;5.50;5.40;;;2.30;99.90;;;;;;5049008;28;20476;-71
2024/01/27 00:08:05;;;;;;;5.67;5.57;;;2.20;99.90;;;;;;5051818;28;20492;-71
2024/01/27 00:10:31;;;;;;;5.27;5.17;;;2.20;99.90;;;;;;5060900;28;20453;-73
2024/01/27 00:12:58;;;;;;;5.50;5.40;;;2.10;99.90;;;;;;5047642;28;20970;-70
2024/01/27 00:15:26;;;;;;;5.20;5.10;;;2.20;99.90;;;;;;5053838;28;20954;-71
2024/01/27 00:17:54;;;;;;;4.83;4.83;;;2.20;99.90;;;;;;5044766;28;20466;-71
2024/01/27 00:20:21;;;;;;;5.20;5.10;;;2.20;99.90;;;;;;5053068;28;20464;-72
2024/01/27 00:22:47;;;;;;;5.00;5.00;;;2.10;99.90;;;;;;5050143;28;20503;-71
2024/01/27 00:25:14;;;;;;;4.63;4.63;;;2.00;99.90;;;;;;5051159;28;20459;-71
2024/01/27 00:27:42;;;;;;;4.73;4.73;;;1.90;99.90;;;;;;5056250;28;20464;-71
2024/01/27 00:30:11;;;;;;;4.87;4.87;;;1.90;99.90;;;;;;5048083;28;20566;-72
2024/01/27 00:32:38;;;;;;;4.90;4.90;;;1.90;99.90;;;;;;5048690;28;20460;-71
2024/01/27 00:35:08;;;;;;;4.60;4.60;;;1.90;99.90;;;;;;5047368;28;20456;-71
2024/01/27 00:37:35;;;;;;;5.10;5.00;;;1.90;99.90;;;;;;5053931;28;20474;-69
2024/01/27 00:40:03;;;;;;;5.00;5.00;;;1.90;99.90;;;;;;5054544;28;20462;-69
2024/01/27 00:42:30;;;;;;;5.20;5.10;;;1.80;99.90;;;;;;5055507;28;20499;-70
2024/01/27 00:44:58;;;;;;;5.37;5.27;;;1.70;99.90;;;;;;5051446;28;20470;-71
2024/01/27 00:47:25;;;;;;;5.40;5.30;;;1.70;99.90;;;;;;5051966;28;20460;-70
2024/01/27 00:49:53;;;;;;;5.30;5.20;;;1.60;99.90;;;;;;5051228;28;20465;-70
2024/01/27 00:52:22;;;;;;;4.97;4.97;;;1.60;99.90;;;;;;5052085;28;20486;-71
2024/01/27 00:54:49;;;;;;;5.50;5.40;;;1.70;99.90;;;;;;5062236;28;20453;-69
2024/01/27 00:57:16;;;;;;;4.90;4.90;;;1.70;99.90;;;;;;5052057;28;20467;-69
2024/01/27 00:59:43;;;;;;;4.97;4.97;;;1.60;99.90;;;;;;5047252;28;20463;-70
2024/01/27 01:02:10;;;;;;;5.17;5.07;;;1.60;99.90;;;;;;5048822;28;20862;-69
2024/01/27 01:04:37;;;;;;;4.80;4.80;;;1.60;99.90;;;;;;5058911;28;20463;-70
2024/01/27 01:07:04;;;;;;;5.70;5.60;;;1.60;99.90;;;;;;5059563;28;20477;-70
2024/01/27 01:09:33;;;;;;;5.30;5.20;;;1.50;99.90;;;;;;5053571;28;20487;-69
2024/01/27 01:12:00;;;;;;;5.40;5.30;;;1.50;99.90;;;;;;5057959;28;21579;-68
2024/01/27 01:14:27;;;;;;;5.30;5.20;;;1.50;99.90;;;;;;5055176;28;20459;-69
2024/01/27 01:16:54;;;;;;;4.63;4.63;;;1.50;99.90;;;;;;5055188;28;20476;-70
2024/01/27 01:19:21;;;;;;;5.70;5.60;;;1.40;99.90;;;;;;5052665;28;20462;-70
2024/01/27 01:21:48;;;;;;;5.93;5.83;;;1.40;99.90;;;;;;5054693;28;21040;-70
2024/01/27 01:24:15;;;;;;;5.00;5.00;;;1.40;99.90;;;;;;5050023;28;20471;-70
2024/01/27 01:26:44;;;;;;;5.80;5.70;;;1.40;99.90;;;;;;5062960;28;20466;-72
2024/01/27 01:29:11;;;;;;;6.20;6.10;;;1.40;99.90;;;;;;5054900;28;20514;-72
2024/01/27 01:31:38;;;;;;;6.30;6.20;;;1.30;99.90;;;;;;5050262;28;20466;-69
2024/01/27 01:34:05;;;;;;;6.43;6.33;;;1.20;99.90;;;;;;5057423;28;20470;-69
2024/01/27 01:36:32;;;;;;;6.40;6.30;;;1.20;99.90;;;;;;5064153;28;20480;-71
2024/01/27 01:38:58;;;;;;;6.00;5.90;;;1.30;99.90;;;;;;5062394;28;20837;-71
2024/01/27 01:41:25;;;;;;;5.97;5.87;;;1.40;99.90;;;;;;5058861;28;20510;-71
2024/01/27 01:43:53;;;;;;;6.10;6.00;;;1.40;99.90;;;;;;5055334;28;20527;-71
2024/01/27 01:46:21;;;;;;;6.10;6.00;;;1.40;99.90;;;;;;5056143;28;21037;-70
2024/01/27 01:48:47;;;;;;;6.13;6.03;;;1.30;99.90;;;;;;5056264;28;20529;-70
2024/01/27 01:51:17;;;;;;;5.63;5.53;;;1.30;99.90;;;;;;5059992;28;20464;-71
2024/01/27 01:53:44;;;;;;;6.03;5.93;;;1.30;99.90;;;;;;5063185;28;20478;-71
2024/01/27 01:56:14;;;;;;;6.30;6.20;;;1.40;99.90;;;;;;5060290;28;20469;-71
2024/01/27 01:58:41;;;;;;;6.00;5.90;;;1.30;99.90;;;;;;5053004;28;20497;-70
2024/01/27 02:01:10;;;;;;;6.00;5.90;;;1.30;99.90;;;;;;5059938;28;20463;-71
2024/01/27 02:03:37;;;;;;;6.20;6.10;;;1.30;99.90;;;;;;5055134;28;20900;-71
2024/01/27 02:06:05;;;;;;;6.27;6.17;;;1.30;99.90;;;;;;5056023;28;20836;-72
2024/01/27 02:08:31;;;;;;;6.33;6.23;;;1.30;99.90;;;;;;5049401;28;20471;-71
2024/01/27 02:11:01;;;;;;;6.60;6.50;;;1.30;99.90;;;;;;5061621;28;20488;-71
2024/01/27 02:13:28;;;;;;;6.13;6.03;;;1.30;99.90;;;;;;5060183;28;20978;-70
2024/01/27 02:15:55;;;;;;;6.07;5.97;;;1.30;99.90;;;;;;5055221;28;20916;-70
2024/01/27 02:18:23;;;;;;;6.67;6.57;;;1.20;99.90;;;;;;5057593;28;20962;-70
2024/01/27 02:20:50;;;;;;;6.70;6.60;;;1.10;99.90;;;;;;5047763;28;20464;-70
2024/01/27 02:23:17;;;;;;;6.33;6.23;;;1.00;99.90;;;;;;5054592;28;20500;-71
2024/01/27 02:25:45;;;;;;;6.07;5.97;;;1.00;99.90;;;;;;5053724;28;20458;-70
2024/01/27 02:28:13;;;;;;;5.70;5.60;;;1.00;99.90;;;;;;5060431;28;20462;-71
2024/01/27 02:30:40;;;;;;;5.90;5.80;;;1.10;99.90;;;;;;5052702;28;20463;-70
2024/01/27 02:33:06;;;;;;;5.70;5.60;;;1.10;99.90;;;;;;5051824;28;20460;-70
2024/01/27 02:35:33;;;;;;;6.00;5.90;;;1.10;99.90;;;;;;5049275;28;20468;-70
2024/01/27 02:38:00;;;;;;;5.80;5.70;;;1.10;99.90;;;;;;5050853;28;20470;-71
2024/01/27 02:40:27;;;;;;;5.77;5.67;;;1.10;99.90;;;;;;5062814;28;21044;-70
2024/01/27 02:42:55;;;;;;;5.70;5.60;;;1.10;99.90;;;;;;5056798;28;20491;-70
2024/01/27 02:45:22;;;;;;;5.67;5.57;;;1.10;99.90;;;;;;5053885;28;20816;-71
2024/01/27 02:47:49;;;;;;;6.07;5.97;;;1.10;99.90;;;;;;5054474;28;20470;-70
2024/01/27 02:50:16;;;;;;;5.70;5.60;;;1.00;99.90;;;;;;5055039;28;20879;-70
2024/01/27 02:52:43;;;;;;;6.33;6.23;;;1.10;99.90;;;;;;5053734;28;20491;-72
2024/01/27 02:55:10;;;;;;;6.10;6.00;;;1.00;99.90;;;;;;5057577;28;20448;-72
2024/01/27 02:57:37;;;;;;;6.10;6.00;;;1.00;99.90;;;;;;5050405;28;20887;-71
2024/01/27 03:00:06;;;;;;;6.30;6.20;;;0.90;99.90;;;;;;5053592;28;20468;-71
2024/01/27 03:02:33;;;;;;;5.93;5.83;;;1.00;99.90;;;;;;5053185;28;20844;-71
2024/01/27 03:04:59;;;;;;;6.27;6.17;;;1.20;99.90;;;;;;5056851;28;20514;-72
2024/01/27 03:07:26;;;;;;;5.80;5.70;;;1.20;99.90;;;;;;5052143;28;20466;-70
2024/01/27 03:09:53;;;;;;;6.03;5.93;;;1.20;99.90;;;;;;5051888;28;20470;-70
2024/01/27 03:12:22;;;;;;;5.90;5.80;;;1.20;99.90;;;;;;5052901;28;20459;-71
2024/01/27 03:14:50;;;;;;;6.10;6.00;;;1.10;99.90;;;;;;5052970;28;20518;-70
2024/01/27 03:17:19;;;;;;;6.50;6.40;;;1.10;99.90;;;;;;5048894;28;20462;-72
2024/01/27 03:19:46;;;;;;;6.80;6.70;;;1.20;99.90;;;;;;5055711;28;20549;-71
2024/01/27 03:22:13;;;;;;;6.60;6.50;;;1.20;99.90;;;;;;5059876;28;20470;-71
2024/01/27 03:24:39;;;;;;;6.40;6.30;;;1.20;99.90;;;;;;5051529;28;20467;-71
2024/01/27 03:27:07;;;;;;;6.53;6.43;;;1.20;99.90;;;;;;5057952;28;20459;-71
2024/01/27 03:29:34;;;;;;;6.50;6.40;;;1.20;99.90;;;;;;5051710;28;20456;-71
2024/01/27 03:32:01;;;;;;;6.90;6.80;;;1.20;99.90;;;;;;5055384;28;20466;-72
2024/01/27 03:34:29;;;;;;;6.70;6.60;;;1.10;99.90;;;;;;5057085;28;20459;-71
2024/01/27 03:36:56;;;;;;;6.77;6.67;;;1.10;99.90;;;;;;5052134;28;20766;-71
2024/01/27 03:39:23;;;;;;;6.23;6.13;;;1.10;99.90;;;;;;5051302;28;20489;-72
2024/01/27 03:41:51;;;;;;;7.53;7.43;;;1.10;99.90;;;;;;5056403;28;20464;-72
2024/01/27 03:44:17;;;;;;;6.80;6.70;;;1.20;99.90;;;;;;5059903;28;20482;-71
2024/01/27 03:46:44;;;;;;;7.10;7.00;;;1.20;99.90;;;;;;5046625;28;20467;-71
2024/01/27 03:49:11;;;;;;;7.30;7.20;;;1.20;99.90;;;;;;5053643;28;20475;-71
2024/01/27 03:51:39;;;;;;;7.03;6.93;;;1.10;99.90;;;;;;5059419;28;20469;-72
2024/01/27 03:54:06;;;;;;;6.73;6.63;;;1.10;99.90;;;;;;5051092;28;20479;-72
2024/01/27 03:56:33;;;;;;;7.10;7.00;;;1.20;99.90;;;;;;5051054;28;20479;-72
2024/01/27 03:58:59;;;;;;;7.10;7.00;;;1.20;99.90;;;;;;5053376;28;20478;-71
2024/01/27 04:01:26;;;;;;;7.70;7.60;;;1.20;99.90;;;;;;5053948;28;20467;-71
2024/01/27 04:03:53;;;;;;;7.10;7.00;;;1.10;99.90;;;;;;5047979;28;20497;-72
2024/01/27 04:06:21;;;;;;;7.47;7.37;;;1.00;99.90;;;;;;5052269;28;20875;-70
2024/01/27 04:08:49;;;;;;;7.47;7.37;;;1.00;99.90;;;;;;5056337;28;20498;-72
2024/01/27 04:11:22;;;;;;;7.50;7.40;;;1.10;99.90;;;;;;5053386;28;20506;-71
2024/01/27 04:13:50;;;;;;;7.33;7.23;;;1.10;99.90;;;;;;5060489;28;20461;-71
2024/01/27 04:16:18;;;;;;;8.00;7.90;;;0.90;99.90;;;;;;5048352;28;20525;-71
2024/01/27 04:18:44;;;;;;;7.60;7.50;;;0.80;99.90;;;;;;5057704;28;20513;-72
2024/01/27 04:21:11;;;;;;;7.67;7.57;;;0.80;99.90;;;;;;5065586;28;20458;-72
2024/01/27 04:23:38;;;;;;;8.00;7.90;;;0.80;99.90;;;;;;5053879;28;20508;-73
2024/01/27 04:26:09;;;;;;;8.30;8.20;;;0.80;99.90;;;;;;5049353;28;20459;-71
2024/01/27 04:28:36;;;;;;;8.00;7.90;;;0.80;99.90;;;;;;5056281;28;20456;-72
2024/01/27 04:31:03;;;;;;;8.07;7.97;;;1.00;99.90;;;;;;5055351;28;20467;-73
2024/01/27 04:33:30;;;;;;;8.07;7.97;;;1.00;99.90;;;;;;5052624;28;20941;-69
2024/01/27 04:35:57;;;;;;;8.00;7.90;;;1.00;99.90;;;;;;5057351;28;20792;-70
2024/01/27 04:38:24;;;;;;;7.57;7.47;;;1.10;99.90;;;;;;5052443;28;20479;-71
2024/01/27 04:40:53;;;;;;;7.77;7.67;;;1.10;99.90;;;;;;5053313;28;20506;-72
2024/01/27 04:43:22;;;;;;;7.80;7.70;;;1.10;99.90;;;;;;5063286;28;20490;-71
2024/01/27 04:45:49;;;;;;;7.70;7.60;;;1.20;99.90;;;;;;5052342;28;20493;-71
2024/01/27 04:48:16;;;;;;;7.90;7.80;;;1.20;99.90;;;;;;5056430;28;21025;-71
2024/01/27 04:50:43;;;;;;;7.60;7.50;;;1.10;99.90;;;;;;5065075;28;20470;-70
2024/01/27 04:53:10;;;;;;;7.57;7.47;;;1.10;99.90;;;;;;5059945;28;20521;-71
2024/01/27 04:55:37;;;;;;;8.10;8.00;;;1.10;99.90;;;;;;5056672;28;20506;-70
2024/01/27 04:58:05;;;;;;;8.60;8.50;;;1.10;99.90;;;;;;5051422;28;20488;-72
2024/01/27 05:00:33;;;;;;;9.50;9.30;;;1.10;99.90;;;;;;5060207;28;20992;-71
2024/01/27 05:03:04;;;;;;;8.77;8.67;;;1.10;99.90;;;;;;5053485;28;20468;-70
2024/01/27 05:05:30;;;;;;;8.53;8.43;;;1.10;99.90;;;;;;5057350;28;20463;-70
2024/01/27 05:07:57;;;;;;;8.33;8.23;;;1.10;99.90;;;;;;5059052;28;21258;-71
2024/01/27 05:10:25;;;;;;;8.17;8.07;;;1.20;99.90;;;;;;5052576;28;20474;-72
2024/01/27 05:12:52;;;;;;;7.97;7.87;;;1.20;99.90;;;;;;5060432;28;20497;-70
2024/01/27 05:15:19;;;;;;;8.40;8.30;;;1.10;99.90;;;;;;5054033;28;20823;-71
2024/01/27 05:17:49;;;;;;;8.10;8.00;;;1.10;99.90;;;;;;5055594;28;20462;-72
2024/01/27 05:20:15;;;;;;;8.90;8.80;;;1.20;99.90;;;;;;5056115;28;20970;-72
2024/01/27 05:22:42;;;;;;;8.20;8.10;;;1.10;99.90;;;;;;5062198;28;20958;-71
2024/01/27 05:25:09;;;;;;;9.30;9.10;;;1.20;99.90;;;;;;5059124;28;20623;-72
2024/01/27 05:27:38;;;;;;;8.50;8.40;;;1.20;99.90;;;;;;5064032;28;20455;-72
2024/01/27 05:30:06;;;;;;;8.77;8.67;;;1.10;99.90;;;;;;5055753;28;20545;-72
2024/01/27 05:32:33;;;;;;;8.50;8.40;;;1.10;99.90;;;;;;5053856;28;20466;-72
2024/01/27 05:35:01;;;;;;;8.10;8.00;;;1.10;99.90;;;;;;5054072;28;20458;-72
2024/01/27 05:37:28;;;;;;;8.30;8.20;;;1.10;99.90;;;;;;5055968;28;21042;-70
2024/01/27 05:39:55;;;;;;;8.93;8.83;;;1.00;99.90;;;;;;5053673;28;20459;-72
2024/01/27 05:42:23;;;;;;;9.00;8.90;;;0.90;99.90;;;;;;5059943;28;20473;-72
2024/01/27 05:44:49;;;;;;;9.27;9.07;;;0.80;99.90;;;;;;5052501;28;20498;-71
2024/01/27 05:47:17;;;;;;;8.90;8.80;;;0.80;99.90;;;;;;5050938;28;20508;-71
2024/01/27 05:49:44;;;;;;;9.60;9.40;;;0.70;99.90;;;;;;5051837;28;20528;-70
2024/01/27 05:52:13;;;;;;;9.80;9.60;;;0.70;99.90;;;;;;5057269;28;20878;-70
2024/01/27 05:54:42;;;;;;;9.47;9.27;;;0.80;99.90;;;;;;5052238;28;20499;-70
2024/01/27 05:57:09;;;;;;;9.70;9.50;;;0.90;99.90;;;;;;5059967;28;20474;-71
2024/01/27 05:59:36;;;;;;;9.90;9.70;;;0.90;99.90;;;;;;5053814;28;20489;-70
2024/01/27 06:02:03;;;;;;;9.27;9.07;;;0.90;99.90;;;;;;5061017;28;20465;-70
2024/01/27 06:04:31;;;;;;;9.80;9.60;;;0.80;99.90;;;;;;5056921;28;20475;-71
2024/01/27 06:06:58;;;;;;;9.47;9.27;;;0.70;99.90;;;;;;5056089;28;21187;-71
2024/01/27 06:09:26;;;;;;;10.40;10.20;;;0.60;99.90;;;;;;5056625;28;20469;-71
2024/01/27 06:11:53;;;;;;;10.53;10.33;;;0.50;99.90;;;;;;5063310;28;20466;-70
2024/01/27 06:14:19;;;;;;;10.20;10.00;;;0.50;99.90;;;;;;5058354;28;20472;-70
2024/01/27 06:16:47;;;;;;;10.30;10.10;;;0.60;99.90;;;;;;5054778;28;20461;-71
2024/01/27 06:19:14;;;;;;;10.70;10.50;;;0.60;99.90;;;;;;5059848;28;20764;-70
2024/01/27 06:21:41;;;;;;;10.97;10.77;;;0.50;99.90;;;;;;5056230;28;20923;-71
2024/01/27 06:24:07;;;;;;;11.00;10.80;;;0.40;99.90;;;;;;5047372;28;20493;-71
2024/01/27 06:26:35;;;;;;;11.17;10.97;;;0.40;99.90;;;;;;5062109;28;20460;-71
2024/01/27 06:29:02;;;;;;;11.50;11.20;;;0.40;99.90;;;;;;5059585;28;20899;-70
2024/01/27 06:31:29;;;;;;;11.57;11.27;;;0.30;99.90;;;;;;5059050;28;20462;-71
2024/01/27 06:33:56;;;;;;;11.90;11.60;;;0.30;99.90;;;;;;5054438;28;20826;-70
2024/01/27 06:36:24;;;;;;;11.87;11.57;;;0.20;99.90;;;;;;5059962;28;20947;-70
2024/01/27 06:38:51;;;;;;;11.70;11.40;;;0.30;99.90;;;;;;5054508;28;20474;-70
2024/01/27 06:41:18;;;;;;;12.07;11.77;;;0.30;99.90;;;;;;5049548;28;20470;-72
2024/01/27 06:43:47;;;;;;;11.20;10.97;;;0.40;99.90;;;;;;5057106;28;20483;-70
2024/01/27 06:46:14;;;;;;;12.00;11.70;;;0.40;99.90;;;;;;5053230;28;20454;-70
2024/01/27 06:48:42;;;;;;;12.10;11.80;;;0.40;99.90;;;;;;5057579;28;20488;-69
2024/01/27 06:51:08;;;;;;;12.07;11.77;;;0.40;99.90;;;;;;5059026;28;20458;-70
2024/01/27 06:53:36;;;;;;;12.03;11.73;;;0.50;99.90;;;;;;5048998;28;20496;-71
2024/01/27 06:56:04;;;;;;;12.73;12.43;;;0.40;99.90;;;;;;5054961;28;20524;-70
2024/01/27 06:58:32;;;;;;;11.97;11.67;;;0.30;99.90;;;;;;5054438;28;20485;-71
2024/01/27 07:01:00;;;;;;;12.27;11.97;;;0.30;99.90;;;;;;5048904;28;20465;-70
2024/01/27 07:03:27;;;;;;;12.90;12.60;;;0.30;99.90;;;;;;5054766;28;20475;-70
2024/01/27 07:05:54;;;;;;;11.80;11.50;;;0.30;99.90;;;;;;5052521;28;20519;-70
2024/01/27 07:08:21;;;;;;;12.47;12.17;;;0.30;99.90;;;;;;5053120;28;20463;-70
2024/01/27 07:10:49;;;;;;;12.80;12.50;;;0.20;99.90;;;;;;5053141;28;20477;-71
2024/01/27 07:13:16;;;;;;;12.83;12.53;;;0.10;99.90;;;;;;5056248;28;20455;-70
2024/01/27 07:15:42;;;;;;;12.27;11.97;;;0.10;99.90;;;;;;5055510;28;20708;-71
2024/01/27 07:18:11;;;;;;;12.93;12.63;;;0.10;99.90;;;;;;5049645;28;20458;-70
2024/01/27 07:20:38;;;;;;;12.37;12.07;;;0.10;99.90;;;;;;5052484;28;20528;-70
2024/01/27 07:23:05;;;;;;;13.00;12.70;;;0.10;99.90;;;;;;5052983;28;20485;-71
2024/01/27 07:25:32;;;;;;;12.93;12.63;;;0.00;99.90;;;;;;5053055;28;20508;-70
2024/01/27 07:27:59;;;;;;;13.00;12.70;;;0.00;99.90;;;;;;5052018;28;20464;-70
2024/01/27 07:30:27;;;;;;;13.17;12.87;;;0.00;99.90;;;;;;5050191;28;20467;-71
2024/01/27 07:32:55;;;;;;;12.23;11.93;;;0.10;99.90;;;;;;5052603;28;20454;-71
2024/01/27 07:35:23;;;;;;;12.70;12.40;;;0.20;99.90;;;;;;5048680;28;20498;-70
2024/01/27 07:37:51;;;;;;;11.57;11.27;;;0.50;99.90;;;;;;5056535;28;20460;-70
2024/01/27 07:40:17;;;;;;;11.87;11.57;;;0.60;99.90;;;;;;5055628;28;20473;-71
2024/01/27 07:42:44;;;;;;;11.90;11.60;;;0.60;99.90;;;;;;5051911;28;20471;-71
2024/01/27 07:45:11;;;;;;;11.73;11.43;;;0.70;99.90;;;;;;5051252;28;21027;-71
2024/01/27 07:47:39;;;;;;;11.77;11.47;;;0.70;99.90;;;;;;5053601;28;20471;-71
2024/01/27 07:50:06;;;;;;;11.47;11.17;;;0.70;99.90;;;;;;5050035;28;20470;-71
2024/01/27 07:52:35;;;;;;;11.43;11.13;;;0.70;99.90;;;;;;5054046;28;20486;-72
2024/01/27 07:55:02;;;;;;;11.33;11.07;;;0.70;99.90;;;;;;5053699;28;20467;-71
2024/01/27 07:57:29;;;;;;;11.40;11.10;;;0.70;99.90;;;;;;5049057;28;20781;-72
2024/01/27 07:59:57;;;;;;;10.87;10.67;;;0.80;99.90;;;;;;5049508;28;20493;-71
2024/01/27 08:02:26;;;;;;;11.40;11.13;;;0.80;99.90;;;;;;5055139;28;20467;-72
2024/01/27 08:04:53;;;;;;;11.60;11.30;;;0.80;99.90;;;;;;5054755;28;20531;-72
2024/01/27 08:07:20;;;;;;;11.87;11.57;;;0.80;99.90;;;;;;5053550;28;20464;-72
2024/01/27 08:09:48;;;;;;;12.30;12.00;;;0.80;99.90;;;;;;5051583;28;20459;-72
2024/01/27 08:12:15;;;;;;;12.80;12.50;;;0.80;99.90;;;;;;5055420;28;20810;-72
2024/01/27 08:14:42;;;;;;;11.90;11.60;;;0.90;99.90;;;;;;5043230;28;20468;-72
2024/01/27 08:17:09;;;;;;;12.20;11.90;;;1.00;99.90;;;;;;5051947;28;20531;-72
2024/01/27 08:19:37;;;;;;;11.90;11.60;;;1.00;99.90;;;;;;5052518;28;20513;-72
2024/01/27 08:22:04;;;;;;;11.83;11.53;;;1.10;99.90;;;;;;5054931;28;20479;-72
2024/01/27 08:24:31;;;;;;;12.40;12.10;;;1.20;99.90;;;;;;5052165;28;20485;-71
2024/01/27 08:27:01;;;;;;;11.90;11.60;;;1.20;99.90;;;;;;5056227;28;20478;-72
2024/01/27 08:29:28;;;;;;;12.60;12.30;;;1.30;99.90;;;;;;5049740;28;20826;-72
2024/01/27 08:31:54;;;;;;;12.57;12.27;;;1.30;99.90;;;;;;5054822;28;20482;-71
2024/01/27 08:34:22;;;;;;;12.23;11.93;;;1.30;99.90;;;;;;5056373;28;20462;-71
2024/01/27 08:36:49;;;;;;;12.77;12.47;;;1.40;99.90;;;;;;5068591;28;20461;-71
2024/01/27 08:39:16;;;;;;;12.33;12.03;;;1.40;99.90;;;;;;5068736;28;20458;-71
2024/01/27 08:41:43;;;;;;;12.03;11.73;;;1.50;99.90;;;;;;5053467;28;20816;-71
2024/01/27 08:44:12;;;;;;;11.93;11.63;;;1.50;99.90;;;;;;5059192;28;20506;-71
2024/01/27 08:46:39;;;;;;;13.00;12.70;;;1.50;99.90;;;;;;5059162;28;20467;-72
2024/01/27 08:49:06;;;;;;;11.83;11.53;;;1.60;99.90;;;;;;5054415;28;20830;-71
2024/01/27 08:51:32;;;;;;;12.80;12.50;;;1.60;99.90;;;;;;5065081;28;20788;-71
2024/01/27 08:54:01;;;;;;;12.67;12.37;;;1.70;99.90;;;;;;5066923;28;20473;-71
2024/01/27 08:56:27;;;;;;;11.90;11.60;;;1.70;99.90;;;;;;5053761;28;20470;-71
2024/01/27 08:58:56;;;;;;;11.83;11.53;;;1.60;99.90;;;;;;5050237;28;20500;-73
2024/01/27 09:01:25;;;;;;;12.90;12.57;;;1.60;99.90;;;;;;5059192;28;20474;-72
2024/01/27 09:03:52;;;;;;;12.90;12.57;;;1.70;99.90;;;;;;5053867;28;20910;-72
2024/01/27 09:06:19;;;;;;;12.90;12.50;;;1.90;99.90;;;;;;5056007;28;20459;-72
2024/01/27 09:08:46;;;;;;;13.23;12.83;;;2.00;99.90;;;;;;5051424;28;20465;-72
2024/01/27 09:11:14;;;;;;;13.40;13.00;;;2.00;99.90;;;;;;5061674;28;20515;-72
2024/01/27 09:13:40;;;;;;;13.13;12.73;;;2.10;99.90;;;;;;5060696;28;20559;-72
2024/01/27 09:16:12;;;;;;;12.00;11.70;;;2.20;99.90;;;;;;5058699;28;20458;-72
2024/01/27 09:18:40;;;;;;;12.90;12.57;;;2.20;99.90;;;;;;5060174;28;20463;-72
2024/01/27 09:21:07;;;;;;;13.03;12.63;;;2.30;99.90;;;;;;5061227;28;20462;-72
2024/01/27 09:23:34;;;;;;;13.00;12.60;;;2.40;99.90;;;;;;5051258;28;20457;-72
2024/01/27 09:26:01;;;;;;;12.93;12.53;;;2.50;99.90;;;;;;5054827;28;20565;-72
2024/01/27 09:28:28;;;;;;;12.30;12.00;;;2.50;99.90;;;;;;5058873;28;20479;-72
2024/01/27 09:30:55;;;;;;;11.93;11.63;;;2.60;99.90;;;;;;5057483;28;20470;-71
2024/01/27 09:33:23;;;;;;;12.00;11.70;;;2.60;99.90;;;;;;5059470;28;20875;-71
2024/01/27 09:35:53;;;;;;;11.60;11.30;;;2.70;99.90;;;;;;5053783;28;20464;-71
2024/01/27 09:38:19;;;;;;;11.20;10.90;;;2.80;99.90;;;;;;5054334;28;21070;-71
2024/01/27 09:40:47;;;;;;;10.70;10.50;;;2.90;99.90;;;;;;5058299;28;20503;-72
2024/01/27 09:43:13;;;;;;;11.40;11.10;;;3.00;99.90;;;;;;5056938;28;20475;-72
2024/01/27 09:45:41;;;;;;;10.93;10.63;;;3.00;99.90;;;;;;5047627;28;20899;-72
2024/01/27 09:48:11;;;;;;;11.10;10.80;;;3.10;99.90;;;;;;5049928;28;20522;-71
2024/01/27 09:50:38;;;;;;;10.97;10.67;;;3.20;99.90;;;;;;5059791;28;20467;-71
2024/01/27 09:53:08;;;;;;;11.07;10.77;;;3.30;99.90;;;;;;5055332;28;20487;-71
2024/01/27 09:55:35;;;;;;;11.10;10.80;;;3.40;99.90;;;;;;5050007;28;20479;-71
2024/01/27 09:58:02;;;;;;;11.03;10.73;;;3.30;99.90;;;;;;5051420;28;20487;-72
2024/01/27 10:00:29;;;;;;;10.30;10.10;;;3.40;99.90;;;;;;5049879;28;20562;-71
2024/01/27 10:02:58;;;;;;;10.90;10.60;;;3.40;99.90;;;;;;5057202;28;20981;-71
2024/01/27 10:05:25;;;;;;;10.53;10.33;;;3.50;99.90;;;;;;5050337;28;20519;-71
2024/01/27 10:07:52;;;;;;;10.10;9.90;;;3.60;99.90;;;;;;5051093;28;20568;-71
2024/01/27 10:10:20;;;;;;;10.13;9.93;;;3.80;99.90;;;;;;5055478;28;20460;-72
2024/01/27 10:12:49;;;;;;;10.43;10.23;;;3.90;99.90;;;;;;5052533;28;20553;-71
2024/01/27 10:15:21;;;;;;;10.17;9.97;;;4.00;99.90;;;;;;5054034;28;20467;-71
2024/01/27 10:17:48;;;;;;;9.90;9.70;;;4.00;99.90;;;;;;5052410;28;20464;-70
2024/01/27 10:20:18;;;;;;;10.30;10.10;;;4.10;99.90;;;;;;5050385;28;20518;-71
2024/01/27 10:22:45;;;;;;;10.27;10.07;;;4.20;99.90;;;;;;5050627;28;20863;-72
2024/01/27 10:25:12;;;;;;;10.87;10.57;;;4.30;99.90;;;;;;5055241;28;20547;-71
2024/01/27 10:27:41;;;;;;;10.80;10.50;;;4.40;99.90;;;;;;5050369;28;20601;-71
2024/01/27 10:30:17;;;;;;;10.03;9.83;;;4.40;99.90;;;;;;5051710;28;20456;-71
2024/01/27 10:32:43;;;;;;;10.67;10.37;;;4.50;99.90;;;;;;5053265;28;20544;-72
2024/01/27 10:35:10;;;;;;;10.67;10.40;;;4.70;99.90;;;;;;5053490;28;20467;-72
2024/01/27 10:37:38;;;;;;;10.70;10.47;;;4.80;99.90;;;;;;5054002;28;20470;-72
2024/01/27 10:40:07;;;;;;;10.40;10.20;;;4.90;99.90;;;;;;5049545;28;20605;-72
2024/01/27 10:42:36;;;;;;;10.90;10.60;;;4.90;99.90;;;;;;5052977;28;20479;-72
2024/01/27 10:45:06;;;;;;;10.57;10.37;;;5.00;99.90;;;;;;5048987;28;20488;-73
2024/01/27 10:47:34;;;;;;;10.30;10.10;;;5.00;99.90;;;;;;5048547;28;20471;-70
2024/01/27 10:50:02;;;;;;;10.73;10.43;;;5.10;99.90;;;;;;5052959;28;20461;-70
2024/01/27 10:52:32;;;;;;;10.30;10.10;;;5.10;99.90;;;;;;5050758;28;20492;-70
2024/01/27 10:55:02;;;;;;;10.30;10.10;;;5.00;99.90;;;;;;5052070;28;20472;-70
2024/01/27 10:57:30;;;;;;;9.97;9.77;;;5.10;99.90;;;;;;5052242;28;20521;-70
2024/01/27 10:59:58;;;;;;;10.40;10.20;;;5.20;99.90;;;;;;5049897;28;20655;-70
2024/01/27 11:02:26;;;;;;;10.43;10.23;;;5.30;99.90;;;;;;5059165;28;21020;-70
2024/01/27 11:04:54;;;;;;;10.40;10.20;;;5.40;99.90;;;;;;5051031;28;20491;-70
2024/01/27 11:07:22;;;;;;;11.13;10.83;;;5.60;99.90;;;;;;5049713;28;20553;-70
2024/01/27 11:09:54;;;;;;;11.30;11.00;;;6.00;99.90;;;;;;5052391;28;20561;-70
2024/01/27 11:12:22;;;;;;;11.20;10.90;;;6.60;99.90;;;;;;5058197;28;20485;-70
2024/01/27 11:14:51;;;;;;;11.57;11.27;;;7.40;99.90;;;;;;5057368;28;20463;-70
2024/01/27 11:17:18;;;;;;;12.30;12.00;;;7.90;99.90;;;;;;5049819;28;20513;-70
2024/01/27 11:19:47;;;;;;;11.93;11.63;;;8.50;99.90;;;;;;5050242;28;20467;-70
2024/01/27 11:22:26;;;;;;;11.97;11.67;;;9.00;99.90;;;;;;5059504;28;20489;-70
2024/01/27 11:24:53;;;;;;;12.80;12.40;;;9.30;99.90;;;;;;5051775;28;20473;-72
2024/01/27 11:27:35;;;;;;;12.90;12.50;;;9.30;99.90;;;;;;5057902;28;20470;-72
2024/01/27 11:30:02;;;;;;;13.27;12.87;;;9.50;99.90;;;;;;5052610;28;20463;-71
2024/01/27 11:32:29;;;;;;;12.97;12.57;;;9.80;99.90;;;;;;5049285;28;20459;-71
2024/01/27 11:34:58;;;;;;;12.77;12.40;;;9.50;99.90;;;;;;5045751;28;20534;-71
2024/01/27 11:37:26;;;;;;;13.00;12.60;;;9.70;99.90;;;;;;5044143;28;20549;-70
2024/01/27 11:39:53;;;;;;;13.10;12.70;;;9.80;99.90;;;;;;5058710;28;20458;-71
2024/01/27 11:42:20;;;;;;;13.23;12.83;;;9.60;99.90;;;;;;5052345;28;20453;-71
2024/01/27 11:44:47;;;;;;;13.43;13.03;;;9.70;99.90;;;;;;5050717;28;20466;-71
2024/01/27 11:47:18;;;;;;;13.20;12.80;;;9.70;99.90;;;;;;5050822;28;20473;-71
2024/01/27 11:49:53;;;;;;;12.90;12.50;;;9.90;99.90;;;;;;5047533;28;20516;-71
2024/01/27 11:52:21;;;;;;;12.83;12.53;;;9.80;99.90;;;;;;5054665;28;20462;-72
2024/01/27 11:54:55;;;;;;;12.70;12.40;;;9.80;99.90;;;;;;5051719;28;20465;-72
2024/01/27 11:57:22;;;;;;;13.60;13.20;;;10.10;99.90;;;;;;5046284;28;20472;-72
2024/01/27 11:59:51;;;;;;;13.57;13.17;;;10.20;99.90;;;;;;5045977;28;20469;-72
2024/01/27 12:02:18;;;;;;;13.20;12.80;;;10.20;99.90;;;;;;5052606;28;20461;-72
2024/01/27 12:04:45;;;;;;;13.63;13.23;;;10.50;99.90;;;;;;5051954;28;20458;-72
2024/01/27 12:07:12;;;;;;;13.07;12.67;;;10.70;99.90;;;;;;5047736;28;20490;-71
2024/01/27 12:09:41;;;;;;;13.33;12.93;;;10.50;99.90;;;;;;5047733;28;20482;-72
2024/01/27 12:12:09;;;;;;;13.33;12.93;;;10.50;99.90;;;;;;5053058;28;20468;-71
2024/01/27 12:14:41;;;;;;;13.67;13.27;;;10.70;99.90;;;;;;5050355;28;20532;-70
2024/01/27 12:17:10;;;;;;;13.73;13.33;;;11.20;99.90;;;;;;5047024;28;20518;-69
2024/01/27 12:19:37;;;;;;;13.33;12.93;;;11.30;99.90;;;;;;5048909;28;20520;-71
2024/01/27 12:22:05;;;;;;;13.93;13.43;;;11.50;99.90;;;;;;5047633;28;20453;-71
2024/01/27 12:24:32;;;;;;;14.30;13.80;;;11.40;99.90;;;;;;5045310;28;21009;-71
2024/01/27 12:27:00;;;;;;;13.70;13.30;;;11.20;99.90;;;;;;5047394;28;21640;-72
2024/01/27 12:29:28;;;;;;;13.77;13.37;;;11.30;99.90;;;;;;5049639;28;20462;-72
2024/01/27 12:31:56;;;;;;;13.47;13.07;;;11.30;99.90;;;;;;5046240;28;21142;-72
2024/01/27 12:34:24;;;;;;;14.10;13.60;;;11.10;99.90;;;;;;5052243;28;20465;-71
2024/01/27 12:36:51;;;;;;;13.50;13.10;;;11.10;99.90;;;;;;5044906;28;20503;-71
2024/01/27 12:39:19;;;;;;;13.70;13.30;;;11.30;99.90;;;;;;5048184;28;20468;-71
2024/01/27 12:41:45;;;;;;;14.30;13.80;;;11.40;99.90;;;;;;5048154;28;20460;-73
2024/01/27 12:44:13;;;;;;;14.70;14.20;;;11.60;99.90;;;;;;5049675;28;20495;-72
2024/01/27 12:46:40;;;;;;;13.60;13.20;;;11.60;99.90;;;;;;5052136;28;20484;-71